aviador You're here:

PAIG Decoded Metar

IGIUGIG in AK, USA
Report Time2017-07-23 07:56:00
UTC Time2017-07-23 08:46:41
Flight Rules vfr VFR
Wind190° at 12 kt
W.Decomp.*RWY 23: 6.2 kt HW 10.3 kt LCW
W.Rank190° ranks 10
Current wind is above 190° avg. (6.8)
Visibility9999 m
Phenomena:N/A
Clouds:N/A
Expected CloudBase > 800 ft AGL from Temp-Dew spread
CeilingNone
Temp17°C (ISA +2)
Dew Point15°C (88% RH)
AAT14.3°C
QNH1017 hPa
Density Alt440 ft
Elevation92 ft
Report Wrong Elevation
Raw Report
PAIG 230756Z AUTO 19012KT 10SM CLR 17/15 A3003 RMK AO2 SLP178
T01720150 $=

Extra information for PAIG:More info

Metar Taf Metar & Taf Last 4 Metars F.Rules Stats Wind Profile Meteogram Temp Stats Airport Information Weather charts Add Link Nearby VenuesMetar ALERT Operation Metar Decoded Social comments

AIRNAV info for PAIG